Time;durP1;ratioP1;P1;durP2;ratioP2;P2;SDS_P1;SDS_P2;PMS_P1;PMS_P2;Temp;Humidity;BMP_temperature;BMP_pressure;BME280_temperature;BME280_humidity;BME280_pressure;Samples;Min_cycle;Max_cycle;Signal;HPM_P1;HPM_P2
2023/03/12 00:02:03;;;;;;;19.40;13.60;;;;;;;-0.33;69.88;99660.55;112871;1239;21947;-80
2023/03/12 00:04:40;;;;;;;13.90;10.90;;;;;;;-0.32;69.90;99662.09;112720;1239;22410;-81
2023/03/12 00:07:13;;;;;;;15.30;10.40;;;;;;;-0.30;69.89;99655.23;113110;1239;22007;-81
2023/03/12 00:09:46;;;;;;;12.60;10.50;;;;;;;-0.29;69.91;99651.64;112973;1238;23780;-79
2023/03/12 00:12:15;;;;;;;12.40;9.60;;;;;;;-0.30;69.80;99651.30;112532;1238;21949;-79
2023/03/12 00:14:44;;;;;;;13.70;9.50;;;;;;;-0.28;69.82;99648.23;112197;1244;21992;-78
2023/03/12 00:17:13;;;;;;;16.60;11.70;;;;;;;-0.27;69.83;99644.96;111834;1242;22317;-79
2023/03/12 00:19:44;;;;;;;14.80;9.50;;;;;;;-0.27;69.73;99643.94;111458;1251;22013;-81
2023/03/12 00:22:21;;;;;;;15.90;9.90;;;;;;;-0.28;69.71;99642.58;111822;1246;23061;-80
2023/03/12 00:24:56;;;;;;;14.20;9.80;;;;;;;-0.29;69.73;99647.36;112321;1246;22837;-79
2023/03/12 00:27:25;;;;;;;14.50;9.70;;;;;;;-0.29;69.87;99643.61;111811;1246;23600;-78
2023/03/12 00:29:57;;;;;;;11.80;9.50;;;;;;;-0.28;69.69;99642.06;112098;1246;23697;-79
2023/03/12 00:32:31;;;;;;;13.80;9.50;;;;;;;-0.28;69.66;99646.86;112099;1246;21970;-79
2023/03/12 00:35:01;;;;;;;16.50;9.50;;;;;;;-0.29;69.80;99646.69;111790;1246;22024;-78
2023/03/12 00:37:34;;;;;;;11.80;9.50;;;;;;;-0.30;69.81;99642.24;112086;1239;21963;-79
2023/03/12 00:40:05;;;;;;;14.80;10.20;;;;;;;-0.30;69.69;99643.44;112576;1240;22414;-79
2023/03/12 00:42:40;;;;;;;12.70;10.10;;;;;;;-0.30;69.65;99641.05;112767;1240;23648;-78
2023/03/12 00:45:12;;;;;;;15.60;10.90;;;;;;;-0.30;69.62;99640.88;112446;1240;23924;-79
2023/03/12 00:47:44;;;;;;;13.30;9.90;;;;;;;-0.30;69.67;99642.23;111898;1244;22190;-78
2023/03/12 00:50:15;;;;;;;15.70;11.50;;;;;;;-0.31;69.72;99640.70;112287;1244;22213;-80
2023/03/12 00:52:44;;;;;;;17.30;10.90;;;;;;;-0.31;69.71;99636.61;112089;1244;23808;-79
2023/03/12 00:55:19;;;;;;;13.10;9.10;;;;;;;-0.33;69.66;99639.52;112121;1244;21979;-80
2023/03/12 00:57:48;;;;;;;15.50;9.80;;;;;;;-0.35;69.59;99638.67;112135;1244;21979;-80
2023/03/12 01:00:23;;;;;;;10.20;8.50;;;;;;;-0.36;69.74;99637.30;112028;1244;22968;-80
2023/03/12 01:02:58;;;;;;;10.60;9.00;;;;;;;-0.37;69.90;99635.10;111727;1251;21945;-80
2023/03/12 01:05:30;;;;;;;13.60;8.90;;;;;;;-0.38;69.86;99636.30;111870;1240;21999;-77
2023/03/12 01:08:04;;;;;;;14.00;11.10;;;;;;;-0.38;69.84;99634.76;112781;1240;22162;-79
2023/03/12 01:10:35;;;;;;;13.90;10.20;;;;;;;-0.38;69.73;99639.54;112417;1240;22726;-79
2023/03/12 01:13:04;;;;;;;19.50;11.70;;;;;;;-0.38;69.75;99638.86;112824;1239;21969;-78
2023/03/12 01:15:36;;;;;;;18.10;12.70;;;;;;;-0.40;69.64;99640.92;112197;1240;23030;-78
2023/03/12 01:18:05;;;;;;;13.70;9.60;;;;;;;-0.40;69.68;99640.06;112370;1240;21930;-79
2023/03/12 01:20:34;;;;;;;16.80;10.40;;;;;;;-0.40;69.74;99642.63;112469;1233;23566;-78
2023/03/12 01:23:07;;;;;;;17.90;11.60;;;;;;;-0.41;69.80;99639.39;113572;1233;21968;-80
2023/03/12 01:25:36;;;;;;;17.90;11.00;;;;;;;-0.41;69.87;99640.06;113062;1233;21954;-79
2023/03/12 01:28:08;;;;;;;14.40;10.10;;;;;;;-0.39;69.80;99641.09;113596;1233;21999;-79
2023/03/12 01:30:52;;;;;;;16.00;11.60;;;;;;;-0.40;69.78;99637.67;113316;1233;21939;-79
2023/03/12 01:33:22;;;;;;;14.60;10.10;;;;;;;-0.41;69.86;99636.31;113436;1233;21946;-80
2023/03/12 01:35:53;;;;;;;15.30;10.10;;;;;;;-0.43;69.78;99632.22;113217;1233;22555;-79
2023/03/12 01:38:24;;;;;;;14.40;10.10;;;;;;;-0.41;70.01;99631.36;113337;1232;22554;-79
2023/03/12 01:40:54;;;;;;;13.10;9.70;;;;;;;-0.35;70.06;99628.75;113365;1233;23568;-78
2023/03/12 01:43:45;;;;;;;16.60;10.90;;;;;;;-0.34;69.91;99631.66;112778;1239;23581;-80
2023/03/12 01:46:37;;;;;;;12.60;9.40;;;;;;;-0.38;69.82;99633.39;112535;1239;23741;-80
2023/03/12 01:49:28;;;;;;;12.60;9.40;;;;;;;-0.41;69.75;99633.40;112657;1239;21990;-79
2023/03/12 01:52:10;;;;;;;16.20;8.90;;;;;;;-0.43;69.76;99630.67;113112;1239;21949;-81
2023/03/12 01:54:54;;;;;;;11.00;9.80;;;;;;;-0.45;69.85;99632.05;112912;1238;21973;-81
2023/03/12 01:57:42;;;;;;;13.10;8.30;;;;;;;-0.46;69.80;99630.17;112767;1239;22408;-80
2023/03/12 02:00:22;;;;;;;12.80;9.10;;;;;;;-0.46;69.93;99632.06;112749;1239;23625;-79
2023/03/12 02:03:04;;;;;;;10.90;8.50;;;;;;;-0.46;69.99;99634.45;113409;1233;22958;-79
2023/03/12 02:05:46;;;;;;;15.80;8.60;;;;;;;-0.46;69.93;99635.13;113350;1232;21944;-80
2023/03/12 02:08:19;;;;;;;12.50;8.00;;;;;;;-0.45;69.95;99635.98;113834;1232;22145;-79
2023/03/12 02:10:48;;;;;;;15.30;9.70;;;;;;;-0.45;70.00;99640.27;112435;1239;23597;-79
2023/03/12 02:13:17;;;;;;;15.40;9.00;;;;;;;-0.43;69.94;99643.50;112039;1243;22047;-78
2023/03/12 02:15:48;;;;;;;10.80;8.50;;;;;;;-0.45;70.03;99640.27;112273;1243;23787;-79
2023/03/12 02:18:21;;;;;;;12.20;8.00;;;;;;;-0.43;69.93;99642.14;112147;1243;21960;-78
2023/03/12 02:21:25;;;;;;;9.80;7.40;;;;;;;-0.45;69.86;99648.98;111462;1251;21966;-78
2023/03/12 02:24:28;;;;;;;11.60;7.60;;;;;;;-0.46;70.04;99651.21;111510;1250;23658;-78
2023/03/12 02:27:03;;;;;;;12.70;7.00;;;;;;;-0.46;70.17;99653.27;111603;1250;21994;-78
2023/03/12 02:29:35;;;;;;;11.70;7.60;;;;;;;-0.43;70.12;99656.33;111402;1250;22981;-79
2023/03/12 02:32:08;;;;;;;11.70;7.60;;;;;;;-0.38;70.15;99655.96;111669;1246;24235;-79
2023/03/12 02:34:41;;;;;;;13.40;7.00;;;;;;;-0.33;70.14;99654.23;112006;1241;23631;-79
2023/03/12 02:37:23;;;;;;;7.40;6.50;;;;;;;-0.28;70.14;99656.08;112218;1246;21991;-78
2023/03/12 02:40:14;;;;;;;9.60;6.60;;;;;;;-0.23;70.17;99661.18;112627;1239;21954;-80
2023/03/12 02:42:48;;;;;;;8.00;6.20;;;;;;;-0.17;70.20;99658.59;112309;1239;21941;-78
2023/03/12 02:45:34;;;;;;;10.30;7.00;;;;;;;-0.12;70.08;99663.02;112450;1239;23724;-80
2023/03/12 02:48:08;;;;;;;10.50;6.50;;;;;;;-0.07;70.13;99667.27;112449;1239;22072;-80
2023/03/12 02:50:42;;;;;;;9.90;7.30;;;;;;;-0.02;70.02;99668.77;112767;1239;22002;-79
2023/03/12 02:53:15;;;;;;;9.70;6.00;;;;;;;0.02;69.93;99674.06;112589;1239;22081;-80
2023/03/12 02:55:45;;;;;;;9.70;5.50;;;;;;;0.05;69.88;99671.98;112260;1235;22989;-81
2023/03/12 02:58:16;;;;;;;10.40;5.70;;;;;;;0.08;69.85;99676.59;112787;1237;22483;-80
2023/03/12 03:00:45;;;;;;;10.40;7.10;;;;;;;0.11;69.75;99679.31;112264;1241;23706;-78
2023/03/12 03:03:17;;;;;;;12.20;7.00;;;;;;;0.13;69.76;99681.18;111017;1241;2140860;-79
2023/03/12 03:05:50;;;;;;;14.00;6.40;;;;;;;0.14;69.54;99678.95;112470;1241;23710;-80
2023/03/12 03:08:22;;;;;;;7.60;5.60;;;;;;;0.14;69.41;99679.11;112548;1241;23606;-80
2023/03/12 03:10:54;;;;;;;8.60;5.30;;;;;;;0.11;69.36;99680.15;112703;1241;23027;-79
2023/03/12 03:13:29;;;;;;;8.80;5.60;;;;;;;0.09;69.35;99680.67;112408;1241;21960;-80
2023/03/12 03:16:03;;;;;;;11.80;6.30;;;;;;;0.12;69.40;99677.93;112280;1246;22011;-79
2023/03/12 03:18:34;;;;;;;12.90;6.40;;;;;;;0.13;69.26;99675.86;112257;1246;22341;-78
2023/03/12 03:21:09;;;;;;;12.80;6.10;;;;;;;0.14;69.30;99676.55;112228;1234;22538;-79
2023/03/12 03:23:42;;;;;;;10.70;6.30;;;;;;;0.15;69.20;99681.69;112317;1241;23018;-79
2023/03/12 03:26:14;;;;;;;10.10;7.80;;;;;;;0.16;69.15;99685.27;112038;1238;21992;-78
2023/03/12 03:28:45;;;;;;;8.60;7.20;;;;;;;0.16;69.15;99689.55;112045;1245;22241;-78
2023/03/12 03:31:15;;;;;;;;;;;;;;;0.15;69.08;99688.35;112147;1245;21956;-79
2023/03/12 03:33:47;;;;;;;11.40;6.40;;;;;;;0.05;69.21;99689.96;111939;1241;21962;-78
2023/03/12 03:36:17;;;;;;;9.90;6.80;;;;;;;0.01;69.13;99691.69;112084;1244;22102;-78
2023/03/12 03:39:04;;;;;;;11.90;5.70;;;;;;;0.00;69.10;99692.55;112080;1244;22428;-79
2023/03/12 03:41:33;;;;;;;7.70;5.60;;;;;;;-0.01;69.01;99694.77;112229;1244;23761;-78
2023/03/12 03:44:06;;;;;;;9.30;6.60;;;;;;;-0.05;68.84;99697.19;112135;1244;21971;-79
2023/03/12 03:46:36;;;;;;;8.60;5.90;;;;;;;-0.08;68.85;99698.22;112250;1243;22873;-79
2023/03/12 03:49:13;;;;;;;7.90;5.70;;;;;;;-0.10;68.71;99704.05;112777;1239;22603;-80
2023/03/12 03:51:50;;;;;;;12.40;6.40;;;;;;;-0.15;68.72;99707.67;113116;1240;21986;-81
2023/03/12 03:54:29;;;;;;;11.90;6.00;;;;;;;-0.17;68.74;99704.08;112958;1225;22974;-79
2023/03/12 03:57:11;;;;;;;10.90;5.80;;;;;;;-0.20;68.61;99706.48;113352;1232;21973;-79
2023/03/12 03:59:43;;;;;;;9.10;5.10;;;;;;;-0.25;68.61;99712.84;113176;1232;21974;-77
2023/03/12 04:02:19;;;;;;;8.60;6.20;;;;;;;-0.28;68.73;99715.07;113197;1232;21941;-77
2023/03/12 04:04:57;;;;;;;10.40;5.80;;;;;;;-0.32;68.72;99718.50;112472;1239;21937;-79
2023/03/12 04:07:36;;;;;;;8.80;5.40;;;;;;;-0.35;68.76;99716.47;112665;1239;21982;-78
2023/03/12 04:10:10;;;;;;;11.80;5.60;;;;;;;-0.38;68.76;99719.89;113036;1239;21963;-80
2023/03/12 04:12:39;;;;;;;12.00;5.40;;;;;;;-0.38;68.83;99723.66;111984;1244;21918;-78
2023/03/12 04:15:11;;;;;;;12.60;6.10;;;;;;;-0.37;68.89;99725.88;112054;1244;21968;-76
2023/03/12 04:17:47;;;;;;;11.60;6.50;;;;;;;-0.38;68.86;99725.89;111887;1244;22200;-78
2023/03/12 04:20:17;;;;;;;14.80;7.10;;;;;;;-0.39;68.92;99730.34;112230;1245;22596;-78
2023/03/12 04:22:48;;;;;;;9.80;6.20;;;;;;;-0.38;69.03;99731.88;112202;1241;23309;-79
2023/03/12 04:25:18;;;;;;;9.00;5.00;;;;;;;-0.34;69.10;99734.25;112771;1240;22000;-79
2023/03/12 04:28:01;;;;;;;9.70;5.60;;;;;;;-0.30;69.16;99738.00;113110;1241;23618;-79
2023/03/12 04:30:37;;;;;;;9.00;5.50;;;;;;;-0.25;69.23;99737.46;112906;1233;22075;-79
2023/03/12 04:33:13;;;;;;;12.50;4.80;;;;;;;-0.16;69.15;99738.13;113532;1233;21938;-79
2023/03/12 04:35:56;;;;;;;7.30;4.80;;;;;;;-0.14;69.13;99735.55;113230;1233;21949;-79
2023/03/12 04:38:33;;;;;;;;;;;;;;;-0.12;69.15;99727.31;113379;1233;21954;-80
2023/03/12 04:41:10;;;;;;;10.50;5.10;;;;;;;-0.18;69.21;99729.73;113459;1231;21944;-80
2023/03/12 04:43:44;;;;;;;15.00;5.70;;;;;;;-0.19;69.00;99732.48;113402;1233;23463;-79
2023/03/12 04:46:14;;;;;;;9.40;4.70;;;;;;;-0.20;68.96;99733.52;113572;1233;22948;-78
2023/03/12 04:48:46;;;;;;;8.40;5.10;;;;;;;-0.17;68.86;99737.78;112861;1239;23805;-80
2023/03/12 04:51:17;;;;;;;9.20;5.60;;;;;;;-0.18;68.78;99740.86;112846;1239;23042;-79
2023/03/12 04:53:48;;;;;;;11.10;5.60;;;;;;;-0.20;68.70;99741.38;112612;1239;21956;-78
2023/03/12 04:56:18;;;;;;;16.20;9.80;;;;;;;-0.22;68.71;99740.02;112769;1239;21951;-79
2023/03/12 04:58:52;;;;;;;12.90;6.50;;;;;;;-0.24;68.80;99744.82;112403;1239;23037;-80
2023/03/12 05:01:28;;;;;;;12.90;5.80;;;;;;;-0.27;68.71;99747.56;112727;1239;22022;-78
2023/03/12 05:03:57;;;;;;;12.40;5.80;;;;;;;-0.29;68.67;99749.11;113148;1239;22615;-78
2023/03/12 05:06:26;;;;;;;11.40;5.80;;;;;;;-0.31;68.65;99753.05;112674;1233;21960;-80
2023/03/12 05:09:00;;;;;;;10.70;5.30;;;;;;;-0.31;68.75;99753.05;113544;1232;21938;-78
2023/03/12 05:11:37;;;;;;;8.40;5.10;;;;;;;-0.31;68.79;99756.30;113551;1233;21980;-78
2023/03/12 05:14:11;;;;;;;8.20;5.20;;;;;;;-0.32;68.75;99758.34;113330;1233;21953;-78
2023/03/12 05:16:41;;;;;;;;;;;;;;;-0.33;68.67;99762.64;113494;1232;21938;-79
2023/03/12 05:19:10;;;;;;;8.90;6.00;;;;;;;-0.42;68.79;99768.97;113470;1233;21939;-79
2023/03/12 05:21:43;;;;;;;7.30;5.80;;;;;;;-0.42;68.94;99774.45;113351;1233;21942;-78
2023/03/12 05:24:17;;;;;;;14.50;5.40;;;;;;;-0.39;69.04;99781.62;113408;1233;21947;-79
2023/03/12 05:26:47;;;;;;;10.70;6.00;;;;;;;-0.35;69.04;99782.63;113376;1233;21933;-81
2023/03/12 05:29:21;;;;;;;9.80;7.10;;;;;;;-0.31;69.03;99785.70;113616;1233;21996;-78
2023/03/12 05:32:03;;;;;;;12.20;7.60;;;;;;;-0.28;69.07;99786.89;113283;1233;21942;-79
2023/03/12 05:34:36;;;;;;;13.80;5.50;;;;;;;-0.24;69.16;99792.02;113393;1233;21956;-78
2023/03/12 05:37:06;;;;;;;12.20;6.70;;;;;;;-0.14;69.35;99793.52;113119;1233;21981;-79
2023/03/12 05:39:45;;;;;;;10.20;5.80;;;;;;;-0.07;69.17;99795.73;113439;1234;21997;-77
2023/03/12 05:42:25;;;;;;;9.40;5.60;;;;;;;-0.03;69.20;99802.21;113393;1233;21940;-78
2023/03/12 05:45:00;;;;;;;;;;;;;;;0.03;69.08;99806.13;113401;1233;23665;-80
2023/03/12 05:47:30;;;;;;;18.40;6.80;;;;;;;0.02;69.12;99810.41;113500;1233;23658;-79
2023/03/12 05:50:06;;;;;;;11.50;5.60;;;;;;;0.06;69.04;99816.72;113764;1232;23565;-81
2023/03/12 05:52:56;;;;;;;7.70;5.60;;;;;;;0.09;69.11;99816.02;113092;1239;23050;-80
2023/03/12 05:55:35;;;;;;;8.90;6.70;;;;;;;0.14;68.85;99823.36;112969;1239;21961;-80
2023/03/12 05:58:07;;;;;;;7.20;4.90;;;;;;;0.16;68.66;99825.91;112879;1239;22003;-77
2023/03/12 06:00:37;;;;;;;12.70;5.10;;;;;;;0.18;68.51;99827.62;112634;1239;21964;-81
2023/03/12 06:03:22;;;;;;;21.20;6.20;;;;;;;0.18;68.38;99834.13;112370;1244;21965;-81
2023/03/12 06:06:14;;;;;;;8.70;4.30;;;;;;;0.16;68.38;99835.17;112271;1244;23018;-84
2023/03/12 06:09:05;;;;;;;8.90;5.70;;;;;;;0.15;68.30;99841.50;112415;1238;21973;-80
2023/03/12 06:11:59;;;;;;;27.10;13.70;;;;;;;0.14;68.31;99846.45;112244;1245;22726;-82
2023/03/12 06:14:59;;;;;;;14.60;6.50;;;;;;;0.15;68.34;99846.64;112262;1244;21970;-82
2023/03/12 06:17:34;;;;;;;15.00;7.40;;;;;;;0.16;68.35;99847.48;112324;1245;23957;-80
2023/03/12 06:20:11;;;;;;;12.60;7.70;;;;;;;0.24;68.46;99858.07;112054;1245;23616;-80
2023/03/12 06:22:46;;;;;;;9.30;5.60;;;;;;;0.35;68.54;99862.81;112834;1239;21985;-79
2023/03/12 06:25:20;;;;;;;9.60;5.00;;;;;;;0.48;68.66;99863.45;112787;1239;23002;-80
2023/03/12 06:27:59;;;;;;;7.20;4.90;;;;;;;0.62;68.63;99867.83;112744;1239;23075;-79
2023/03/12 06:30:48;;;;;;;8.30;4.40;;;;;;;0.74;68.33;99878.90;113188;1234;22019;-80
2023/03/12 06:33:23;;;;;;;9.40;4.40;;;;;;;0.81;67.99;99886.40;113603;1233;23019;-80
2023/03/12 06:36:08;;;;;;;8.80;5.20;;;;;;;0.86;67.79;99885.52;113605;1234;22659;-81
2023/03/12 06:38:42;;;;;;;10.20;5.90;;;;;;;0.86;67.61;99889.80;113633;1234;23005;-79
2023/03/12 06:41:22;;;;;;;9.30;5.50;;;;;;;0.91;67.56;99898.17;113694;1233;21945;-81
2023/03/12 06:43:55;;;;;;;7.40;5.00;;;;;;;0.97;67.41;99897.45;113612;1231;23001;-81
2023/03/12 06:46:32;;;;;;;9.30;5.00;;;;;;;1.02;67.29;99903.08;113489;1233;22688;-80
2023/03/12 06:49:11;;;;;;;7.80;4.30;;;;;;;1.10;66.99;99905.42;113303;1233;22691;-81
2023/03/12 06:51:56;;;;;;;8.00;5.00;;;;;;;1.10;66.81;99912.80;112656;1239;23699;-81
2023/03/12 06:54:34;;;;;;;8.00;5.70;;;;;;;1.11;66.93;99917.75;112771;1239;21982;-80
2023/03/12 06:57:20;;;;;;;9.50;4.80;;;;;;;1.22;67.17;99918.20;112957;1239;21958;-79
2023/03/12 07:00:02;;;;;;;11.90;5.00;;;;;;;1.37;67.17;99918.27;112935;1239;21960;-81
2023/03/12 07:02:35;;;;;;;6.50;4.90;;;;;;;1.54;67.19;99922.95;112838;1239;22654;-80
2023/03/12 07:05:08;;;;;;;10.40;6.30;;;;;;;1.73;67.21;99919.02;112735;1239;22120;-79
2023/03/12 07:07:43;;;;;;;10.70;4.70;;;;;;;1.99;67.32;99918.95;113190;1239;21972;-79
2023/03/12 07:10:14;;;;;;;10.60;5.50;;;;;;;2.32;67.19;99924.61;113117;1233;23698;-79
2023/03/12 07:12:44;;;;;;;8.70;5.00;;;;;;;2.63;66.88;99921.70;113340;1232;21952;-78
2023/03/12 07:15:13;;;;;;;8.80;5.20;;;;;;;2.94;66.80;99930.73;113290;1232;23597;-80
2023/03/12 07:17:42;;;;;;;7.90;4.60;;;;;;;3.41;66.98;99936.29;112706;1239;21965;-79
2023/03/12 07:20:33;;;;;;;8.40;5.40;;;;;;;3.79;65.68;99934.63;112829;1239;22718;-79
2023/03/12 07:23:37;;;;;;;8.60;4.80;;;;;;;3.95;63.97;99934.37;112459;1243;22378;-80
2023/03/12 07:26:15;;;;;;;6.40;4.40;;;;;;;4.02;63.33;99938.89;112303;1243;22838;-81
2023/03/12 07:28:49;;;;;;;13.80;5.00;;;;;;;4.26;63.92;99935.38;112126;1243;22012;-79
2023/03/12 07:31:28;;;;;;;6.50;3.50;;;;;;;4.61;63.65;99933.67;112462;1243;21951;-79
2023/03/12 07:34:01;;;;;;;7.60;4.50;;;;;;;4.95;62.95;99940.04;112335;1243;21951;-81
2023/03/12 07:36:40;;;;;;;7.70;4.40;;;;;;;5.31;62.32;99934.77;112723;1237;23630;-80
2023/03/12 07:39:13;;;;;;;6.40;4.00;;;;;;;5.63;61.37;99933.49;113343;1237;21984;-79
2023/03/12 07:41:44;;;;;;;7.70;4.00;;;;;;;5.89;59.87;99937.16;112982;1237;21945;-80
2023/03/12 07:44:13;;;;;;;7.50;3.90;;;;;;;6.03;58.84;99939.95;113011;1233;22995;-79
2023/03/12 07:46:42;;;;;;;9.90;4.20;;;;;;;6.26;59.08;99940.92;113042;1237;21950;-81
2023/03/12 07:49:16;;;;;;;11.20;4.40;;;;;;;6.52;58.24;99941.08;113228;1237;23636;-80
2023/03/12 07:51:49;;;;;;;12.20;4.10;;;;;;;6.65;57.23;99937.09;112842;1237;21953;-81
2023/03/12 07:54:18;;;;;;;6.20;3.60;;;;;;;6.78;56.68;99937.76;113425;1232;21937;-79
2023/03/12 07:56:55;;;;;;;5.90;3.70;;;;;;;6.94;55.92;99937.28;113281;1232;22098;-79
2023/03/12 07:59:25;;;;;;;7.10;4.20;;;;;;;6.84;54.09;99940.52;113453;1232;22693;-81
2023/03/12 08:01:54;;;;;;;7.60;4.50;;;;;;;6.84;54.55;99945.52;113081;1232;21942;-79
2023/03/12 08:04:23;;;;;;;8.70;5.00;;;;;;;7.07;54.62;99951.45;113788;1232;22278;-80
2023/03/12 08:06:53;;;;;;;5.70;3.60;;;;;;;7.33;54.44;99955.14;113724;1232;23019;-81
2023/03/12 08:09:28;;;;;;;10.10;4.50;;;;;;;7.43;52.93;99952.27;113378;1233;21935;-79
2023/03/12 08:12:00;;;;;;;6.90;4.10;;;;;;;7.39;52.38;99953.59;113088;1233;22045;-79
2023/03/12 08:14:38;;;;;;;6.80;4.50;;;;;;;7.37;51.97;99957.80;113406;1234;21938;-79
2023/03/12 08:17:24;;;;;;;6.80;4.30;;;;;;;7.49;52.54;99956.05;113647;1232;21953;-79
2023/03/12 08:20:07;;;;;;;8.20;5.00;;;;;;;7.74;52.21;99964.95;113792;1232;23009;-80
2023/03/12 08:22:49;;;;;;;8.00;5.40;;;;;;;7.89;51.76;99971.06;113771;1233;23677;-80
2023/03/12 08:25:27;;;;;;;6.80;4.60;;;;;;;8.05;51.72;99969.83;113527;1232;22072;-79
2023/03/12 08:27:59;;;;;;;6.80;4.70;;;;;;;8.21;51.27;99972.77;113502;1232;21938;-81
2023/03/12 08:30:37;;;;;;;8.40;5.50;;;;;;;8.47;51.03;99971.02;113003;1239;22488;-81
2023/03/12 08:33:10;;;;;;;12.80;4.70;;;;;;;8.66;50.36;99976.09;112694;1239;21957;-87
2023/03/12 08:35:49;;;;;;;5.70;3.60;;;;;;;8.65;49.03;99978.71;111911;1246;21963;-80
2023/03/12 08:38:20;;;;;;;5.90;4.20;;;;;;;8.35;48.00;99982.90;111703;1250;22318;-80
2023/03/12 08:41:00;;;;;;;5.10;3.20;;;;;;;8.17;48.56;99986.95;111777;1250;21929;-79
2023/03/12 08:43:36;;;;;;;6.50;3.60;;;;;;;8.24;49.27;99984.12;111590;1250;24034;-79
2023/03/12 08:46:05;;;;;;;6.30;4.30;;;;;;;8.27;48.81;99986.97;111666;1250;22955;-79
2023/03/12 08:48:40;;;;;;;11.30;4.20;;;;;;;8.29;48.32;99994.16;111702;1245;24298;-80
2023/03/12 08:51:14;;;;;;;8.40;4.30;;;;;;;8.18;48.25;99997.63;111699;1249;23057;-79
2023/03/12 08:53:53;;;;;;;8.60;5.00;;;;;;;8.37;48.45;99995.80;112160;1243;21965;-79
2023/03/12 08:56:22;;;;;;;14.70;5.20;;;;;;;8.40;47.35;99999.70;112407;1238;21946;-78
2023/03/12 08:59:06;;;;;;;11.00;4.60;;;;;;;8.22;46.51;100001.86;113278;1238;22064;-80
2023/03/12 09:01:40;;;;;;;9.40;4.90;;;;;;;7.87;46.73;100001.44;113341;1230;23005;-79
2023/03/12 09:04:16;;;;;;;9.70;5.80;;;;;;;7.85;47.23;100004.28;113241;1238;23630;-83
2023/03/12 09:06:50;;;;;;;11.20;5.30;;;;;;;8.02;47.77;100004.73;113199;1238;22821;-78
2023/03/12 09:09:33;;;;;;;;;;;;;;;8.13;46.61;100003.52;113074;1233;21926;-79
2023/03/12 09:12:18;;;;;;;10.40;5.00;;;;;;;7.86;46.24;100007.17;113863;1233;22711;-79
2023/03/12 09:14:57;;;;;;;8.20;4.40;;;;;;;7.85;47.11;100009.46;113483;1233;21960;-79
2023/03/12 09:17:36;;;;;;;7.60;4.40;;;;;;;8.36;47.58;100005.19;113346;1233;22047;-80
2023/03/12 09:20:13;;;;;;;10.30;4.40;;;;;;;8.84;46.50;100005.27;113353;1233;22357;-79
2023/03/12 09:22:44;;;;;;;7.20;4.40;;;;;;;8.98;45.30;100007.18;113616;1233;22166;-81
2023/03/12 09:25:22;;;;;;;7.80;3.50;;;;;;;9.11;44.83;100006.36;113335;1233;23570;-77
2023/03/12 09:28:01;;;;;;;7.70;4.30;;;;;;;9.05;44.47;100008.50;112816;1239;23011;-78
2023/03/12 09:30:34;;;;;;;7.50;3.60;;;;;;;8.96;44.38;100003.13;112772;1238;21975;-79
2023/03/12 09:33:05;;;;;;;10.10;4.20;;;;;;;8.97;44.47;100001.34;112787;1238;21983;-81
2023/03/12 09:35:36;;;;;;;7.40;3.60;;;;;;;9.03;43.56;100000.98;112983;1238;22002;-78
2023/03/12 09:38:14;;;;;;;10.30;3.30;;;;;;;8.98;43.47;100003.39;113129;1238;23005;-78
2023/03/12 09:40:49;;;;;;;5.30;3.10;;;;;;;8.96;43.58;100004.48;112590;1238;23042;-77
2023/03/12 09:48:38;;;;;;;8.10;4.60;;;;;;;9.14;43.35;100003.30;111268;1256;24615;-78
2023/03/12 09:51:24;;;;;;;5.80;3.60;;;;;;;9.27;42.98;100008.74;111219;1256;21983;-78
2023/03/12 09:54:02;;;;;;;5.60;2.80;;;;;;;9.39;42.34;100006.01;111046;1256;21972;-77
2023/03/12 09:56:53;;;;;;;9.40;3.50;;;;;;;9.54;42.20;100011.17;111133;1256;22012;-78
2023/03/12 09:59:39;;;;;;;7.80;3.50;;;;;;;9.51;41.37;100016.12;111392;1256;23742;-79
2023/03/12 10:02:54;;;;;;;7.00;3.60;;;;;;;9.69;41.69;100010.58;110919;1256;21983;-80
2023/03/12 10:06:06;;;;;;;5.10;2.70;;;;;;;9.79;40.86;100013.30;111062;1256;21973;-81
2023/03/12 10:09:05;;;;;;;9.10;3.80;;;;;;;9.62;39.49;100017.95;111359;1251;23701;-80
2023/03/12 10:12:25;;;;;;;7.90;4.50;;;;;;;9.86;40.27;100016.86;111449;1256;21941;-79
2023/03/12 10:15:40;;;;;;;8.00;4.70;;;;;;;10.66;39.64;100018.94;111264;1259;21978;-79
2023/03/12 10:18:50;;;;;;;5.90;2.70;;;;;;;11.15;38.05;100024.27;111786;1248;23734;-81
2023/03/12 10:21:53;;;;;;;9.60;4.10;;;;;;;11.67;37.58;100023.63;111978;1248;23734;-79
2023/03/12 10:24:50;;;;;;;5.40;2.90;;;;;;;12.65;37.27;100023.33;111742;1248;22845;-80
2023/03/12 10:27:38;;;;;;;6.00;3.10;;;;;;;13.39;35.77;100021.00;112068;1248;23089;-80
2023/03/12 10:30:24;;;;;;;4.90;2.80;;;;;;;14.02;35.19;100023.80;111540;1251;23175;-79
2023/03/12 10:33:05;;;;;;;8.30;5.10;;;;;;;14.72;34.58;100025.31;111549;1252;22202;-80
2023/03/12 10:35:51;;;;;;;8.40;3.50;;;;;;;15.49;33.54;100022.88;111679;1252;21974;-82
2023/03/12 10:38:29;;;;;;;8.00;3.80;;;;;;;15.81;31.83;100029.45;111878;1252;22983;-81
2023/03/12 10:41:43;;;;;;;;;;;;;;;;;;;;;
2023/03/12 10:44:38;;;;;;;6.60;4.50;;;;;;;16.24;30.96;100032.63;111648;1252;22000;-81
2023/03/12 10:47:43;;;;;;;7.60;4.00;;;;;;;16.76;29.50;100026.16;111418;1252;21975;-79
2023/03/12 10:50:19;;;;;;;8.60;3.70;;;;;;;17.00;29.37;100029.23;111983;1248;21977;-82
2023/03/12 10:53:18;;;;;;;6.00;3.60;;;;;;;17.52;29.48;100027.36;112196;1247;21952;-81
2023/03/12 10:59:28;;;;;;;5.90;2.80;;;;;;;16.92;26.52;100026.07;111571;1252;22867;-81
2023/03/12 11:02:37;;;;;;;5.30;2.90;;;;;;;16.14;27.54;100026.66;112037;1245;23697;-82
2023/03/12 11:05:54;;;;;;;9.30;4.20;;;;;;;16.09;28.30;100025.71;112124;1246;21963;-80
2023/03/12 11:08:37;;;;;;;5.80;3.60;;;;;;;16.31;28.39;100026.89;112156;1245;22027;-80
2023/03/12 11:11:31;;;;;;;8.10;4.60;;;;;;;16.33;28.29;100020.08;112510;1245;23616;-80
2023/03/12 11:14:18;;;;;;;7.50;4.40;;;;;;;15.76;28.32;100022.92;112157;1245;22838;-80
2023/03/12 11:16:57;;;;;;;19.10;5.50;;;;;;;14.92;28.56;100024.65;112371;1239;22297;-80
2023/03/12 11:19:36;;;;;;;5.00;3.20;;;;;;;13.68;28.79;100028.11;112789;1239;22102;-82
2023/03/12 11:22:36;;;;;;;8.20;4.00;;;;;;;12.53;29.67;100028.65;112445;1244;21962;-80
2023/03/12 11:25:35;;;;;;;13.40;7.60;;;;;;;11.48;30.71;100025.36;112059;1237;23712;-80
2023/03/12 11:28:40;;;;;;;7.90;4.70;;;;;;;10.48;31.75;100024.75;112562;1244;21974;-80
2023/03/12 11:31:40;;;;;;;9.50;5.40;;;;;;;9.73;32.70;100024.15;112205;1244;21992;-80
2023/03/12 11:34:37;;;;;;;7.10;3.40;;;;;;;9.09;33.76;100022.08;112084;1240;21961;-79
2023/03/12 11:38:18;;;;;;;9.90;5.90;;;;;;;8.51;34.51;100020.46;111992;1246;23751;-81
2023/03/12 11:40:57;;;;;;;8.90;4.70;;;;;;;7.84;35.45;100024.39;112111;1247;21992;-78
2023/03/12 11:43:40;;;;;;;6.90;4.10;;;;;;;7.54;36.66;100027.41;112245;1247;24020;-78
2023/03/12 11:47:06;;;;;;;5.60;3.40;;;;;;;7.33;36.92;100026.65;111951;1247;23027;-80
2023/03/12 11:50:12;;;;;;;7.30;3.80;;;;;;;7.04;37.42;100030.95;111808;1247;21980;-78
2023/03/12 11:53:11;;;;;;;7.60;3.80;;;;;;;6.82;38.03;100026.36;111665;1251;22898;-78
2023/03/12 11:56:04;;;;;;;6.80;3.10;;;;;;;6.72;38.51;100021.46;112004;1245;21976;-81
2023/03/12 11:59:02;;;;;;;5.50;2.90;;;;;;;6.65;38.69;100024.08;112728;1245;21954;-79
2023/03/12 12:02:00;;;;;;;7.40;3.80;;;;;;;6.67;39.21;100014.84;112088;1245;22722;-79
2023/03/12 12:05:12;;;;;;;7.40;4.40;;;;;;;6.74;39.35;100006.00;112171;1245;21985;-79
2023/03/12 12:08:15;;;;;;;7.50;3.50;;;;;;;6.78;39.53;100013.85;112325;1245;21960;-79
2023/03/12 12:11:34;;;;;;;7.50;4.50;;;;;;;6.81;39.58;100009.27;112515;1241;21981;-79
2023/03/12 12:14:55;;;;;;;12.00;8.60;;;;;;;6.82;39.97;100008.55;112555;1241;21955;-81
2023/03/12 12:18:09;;;;;;;7.50;4.00;;;;;;;6.84;40.13;100005.89;112833;1239;22176;-79
2023/03/12 12:21:19;;;;;;;11.30;5.40;;;;;;;6.80;40.07;100003.08;112910;1239;23610;-79
2023/03/12 12:24:12;;;;;;;9.30;6.00;;;;;;;6.82;40.39;100006.13;111769;1245;22637;-82
2023/03/12 12:27:27;;;;;;;31.00;21.80;;;;;;;6.80;40.22;99998.26;112405;1245;21960;-81
2023/03/12 12:30:51;;;;;;;11.90;4.80;;;;;;;6.65;40.24;100002.46;112200;1245;22397;-80
2023/03/12 12:34:00;;;;;;;15.40;8.20;;;;;;;6.50;40.50;100005.27;112559;1245;23630;-81